Datos actuales meteorológicos del Aeropuerto de Valencia      LEVC Valencia Airport



Temperatura
17°C Temperatura
14°C Punto de rocío
83% Humedad



Viento
8 KM/H
5 MPH
2 M/S
4 NUDO



310°
NO
Condiciones actuales

Claro Claro
Presión 1015.92 (hPa) - 30 (inHg)
Visibilidad 6.2 (milla) - 10 (km)
✈️ Manises
Código de aeropuerto LEVC

localidad: Valencia Airport
Distancia de Meteo Lliria: 18 (km)

Metar:
LEVC 160030Z 31004KT CAVOK 17/14 Q1016 NOSIG

Hora: 16-10-2021 02:30 CEST

Follow @meteolliria2013